Va Bene — ZCIP8 — position and weather

sailwx.info

Track history (hours):
 
Tides and Currents Weather Stations Pressure Air Temp Water Temp Dewpoint Dewpoint Depression Visibility Wind Speed Wind Dir Waves Ship Positions

Va Bene

Last reported at 2015-May-19 06:32 UTC. Time now 2015-May-23 15:01 UTC.
Position N 43°42' E 007°24'.

Length 50 m; draft 3.6 m.

Type: Pleasure craft. MMSI: 319854000.

Date/timePositionNaut miles runAvg speedWind from/ knotsBaromVisibWave heightAir tempDewpointWater temp
2015-May-19 06:32N 43°42' E 007°24'29 3.2
2015-May-18 21:28N 43°53' E 008°01'0 0.0
2015-May-18 20:04N 43°53' E 008°01'0 0.0
2015-May-18 19:19N 43°53' E 008°01'0 0.0
2015-May-18 18:31N 43°53' E 008°01'0 0.0
2015-May-18 17:28N 43°53' E 008°01'0 0.0
2015-May-18 16:19N 43°53' E 008°01'0 0.0
2015-May-18 15:16N 43°53' E 008°01'  
2015-May-14 12:08N 43°42' E 008°27'712.8
2015-May-14 11:33N 43°38' E 008°35'1312.8
2015-May-14 10:34N 43°30' E 008°50'1313.0
2015-May-14 09:33N 43°22' E 009°04'1313.2
2015-May-14 08:34N 43°14' E 009°18'1312.9
2015-May-14 07:34N 43°06' E 009°32'1313.1
2015-May-14 06:33N 42°56' E 009°44'1313.0
2015-May-14 05:32N 42°48' E 009°59'1413.1
2015-May-14 04:29N 42°40' E 010°13'1513.1
2015-May-14 03:20N 42°30' E 010°30'7713.0
2015-May-13 21:27N 41°45' E 011°53'1413.0
2015-May-13 20:23N 41°37' E 012°08'2412.9
2015-May-13 18:30N 41°23' E 012°34'1212.5
2015-May-13 17:32N 41°16' E 012°47'1212.5
2015-May-13 16:34N 41°09' E 013°00'1312.4
2015-May-13 15:33N 41°03' E 013°15'1312.4
2015-May-13 14:30N 40°57' E 013°30'1212.4
2015-May-13 13:34N 40°51' E 013°44'1212.1
2015-May-13 12:33N 40°45' E 013°58'1212.1
2015-May-13 11:33N 40°43' E 014°14'11 5.5
2015-May-13 09:33N 40°43' E 014°28'5 1.7
2015-May-13 06:33N 40°38' E 014°24'0 0.0
2015-May-13 05:21N 40°38' E 014°24'0 0.0
2015-May-13 04:30N 40°38' E 014°24'0 0.0
2015-May-13 03:27N 40°38' E 014°24'0 0.0
2015-May-13 02:33N 40°38' E 014°24'0 0.0
2015-May-13 00:33N 40°38' E 014°24'0 0.0
2015-May-12 22:21N 40°38' E 014°24'0 0.0
2015-May-12 21:33N 40°38' E 014°24'0 0.0
2015-May-12 20:27N 40°38' E 014°24'0 0.0
2015-May-12 18:27N 40°38' E 014°24'0 0.0
2015-May-12 17:21N 40°38' E 014°24'0 0.0
2015-May-12 15:15N 40°38' E 014°24'0 0.0
2015-May-12 14:30N 40°38' E 014°24'0 0.0
2015-May-12 13:33N 40°38' E 014°24'6 5.7
2015-May-12 12:33N 40°34' E 014°19'9 3.0
2015-May-12 09:26N 40°36' E 014°31'2 0.0
2015-May-10 06:30N 40°37' E 014°30'0 0.0
2015-May-10 05:23N 40°37' E 014°30'0 0.0
2015-May-10 04:08N 40°37' E 014°30'0 0.0
2015-May-09 21:23N 40°37' E 014°30'0 0.0
2015-May-09 19:13N 40°37' E 014°30'0 0.0
2015-May-09 17:22N 40°37' E 014°30'0 0.0
2015-May-09 14:31N 40°37' E 014°30'0 0.0
2015-May-09 13:19N 40°37' E 014°30'0 0.0
2015-May-09 12:19N 40°37' E 014°30'0 0.0
2015-May-09 11:20N 40°37' E 014°30'8 9.8
2015-May-09 10:32N 40°34' E 014°21'5 3.8
2015-May-09 09:19N 40°33' E 014°15'0 0.0
2015-May-09 08:16N 40°33' E 014°15'  
Track history (hours):
 
Tides and Currents Weather Stations Pressure Air Temp Water Temp Dewpoint Dewpoint Depression Visibility Wind Speed Wind Dir Waves Ship Positions

Va Bene

Last reported at 2015-May-19 06:32 UTC. Time now 2015-May-23 15:01 UTC.
Position N 43°42' E 007°24'.

Length 50 m; draft 3.6 m.

Type: Pleasure craft. MMSI: 319854000.

Date/timePositionNaut miles runAvg speedWind from/ knotsBaromVisibWave heightAir tempDewpointWater temp
2015-May-19 06:32N 43°42' E 007°24'29 3.2
2015-May-18 21:28N 43°53' E 008°01'0 0.0
2015-May-18 20:04N 43°53' E 008°01'0 0.0
2015-May-18 19:19N 43°53' E 008°01'0 0.0
2015-May-18 18:31N 43°53' E 008°01'0 0.0
2015-May-18 17:28N 43°53' E 008°01'0 0.0
2015-May-18 16:19N 43°53' E 008°01'0 0.0
2015-May-18 15:16N 43°53' E 008°01'  
2015-May-14 12:08N 43°42' E 008°27'712.8
2015-May-14 11:33N 43°38' E 008°35'1312.8
2015-May-14 10:34N 43°30' E 008°50'1313.0
2015-May-14 09:33N 43°22' E 009°04'1313.2
2015-May-14 08:34N 43°14' E 009°18'1312.9
2015-May-14 07:34N 43°06' E 009°32'1313.1
2015-May-14 06:33N 42°56' E 009°44'1313.0
2015-May-14 05:32N 42°48' E 009°59'1413.1
2015-May-14 04:29N 42°40' E 010°13'1513.1
2015-May-14 03:20N 42°30' E 010°30'7713.0
2015-May-13 21:27N 41°45' E 011°53'1413.0
2015-May-13 20:23N 41°37' E 012°08'2412.9
2015-May-13 18:30N 41°23' E 012°34'1212.5
2015-May-13 17:32N 41°16' E 012°47'1212.5
2015-May-13 16:34N 41°09' E 013°00'1312.4
2015-May-13 15:33N 41°03' E 013°15'1312.4
2015-May-13 14:30N 40°57' E 013°30'1212.4
2015-May-13 13:34N 40°51' E 013°44'1212.1
2015-May-13 12:33N 40°45' E 013°58'1212.1
2015-May-13 11:33N 40°43' E 014°14'11 5.5
2015-May-13 09:33N 40°43' E 014°28'5 1.7
2015-May-13 06:33N 40°38' E 014°24'0 0.0
2015-May-13 05:21N 40°38' E 014°24'0 0.0
2015-May-13 04:30N 40°38' E 014°24'0 0.0
2015-May-13 03:27N 40°38' E 014°24'0 0.0
2015-May-13 02:33N 40°38' E 014°24'0 0.0
2015-May-13 00:33N 40°38' E 014°24'0 0.0
2015-May-12 22:21N 40°38' E 014°24'0 0.0
2015-May-12 21:33N 40°38' E 014°24'0 0.0
2015-May-12 20:27N 40°38' E 014°24'0 0.0
2015-May-12 18:27N 40°38' E 014°24'0 0.0
2015-May-12 17:21N 40°38' E 014°24'0 0.0
2015-May-12 15:15N 40°38' E 014°24'0 0.0
2015-May-12 14:30N 40°38' E 014°24'0 0.0
2015-May-12 13:33N 40°38' E 014°24'6 5.7
2015-May-12 12:33N 40°34' E 014°19'9 3.0
2015-May-12 09:26N 40°36' E 014°31'2 0.0
2015-May-10 06:30N 40°37' E 014°30'0 0.0
2015-May-10 05:23N 40°37' E 014°30'0 0.0
2015-May-10 04:08N 40°37' E 014°30'0 0.0
2015-May-09 21:23N 40°37' E 014°30'0 0.0
2015-May-09 19:13N 40°37' E 014°30'0 0.0
2015-May-09 17:22N 40°37' E 014°30'0 0.0
2015-May-09 14:31N 40°37' E 014°30'0 0.0
2015-May-09 13:19N 40°37' E 014°30'0 0.0
2015-May-09 12:19N 40°37' E 014°30'0 0.0
2015-May-09 11:20N 40°37' E 014°30'8 9.8
2015-May-09 10:32N 40°34' E 014°21'5 3.8
2015-May-09 09:19N 40°33' E 014°15'0 0.0
2015-May-09 08:16N 40°33' E 014°15'  

Dump ship's entire track history